createdAt,value
2017-11-23T00:01:04.773Z,19.70
2017-11-23T00:02:10.096Z,19.70
2017-11-23T00:03:15.264Z,19.70
2017-11-23T00:04:20.540Z,19.70
2017-11-23T00:05:25.604Z,19.70
2017-11-23T00:06:30.692Z,19.60
2017-11-23T00:07:35.879Z,19.70
2017-11-23T00:08:40.995Z,19.70
2017-11-23T00:09:46.033Z,19.70
2017-11-23T00:10:50.992Z,19.70
2017-11-23T00:11:55.847Z,19.60
2017-11-23T00:13:01.217Z,19.70
2017-11-23T00:14:06.274Z,19.70
2017-11-23T00:15:11.399Z,19.70
2017-11-23T00:16:16.510Z,19.70
2017-11-23T00:17:21.755Z,19.70
2017-11-23T00:18:27.559Z,19.70
2017-11-23T00:19:32.594Z,19.70
2017-11-23T00:20:37.403Z,19.70
2017-11-23T00:21:42.410Z,19.70
2017-11-23T00:22:47.355Z,19.70
2017-11-23T00:23:52.355Z,19.70
2017-11-23T00:24:57.172Z,19.70
2017-11-23T00:26:02.248Z,19.70
2017-11-23T00:27:07.505Z,19.70
2017-11-23T00:28:12.349Z,19.70
2017-11-23T00:29:17.280Z,19.70
2017-11-23T00:30:22.057Z,19.70
2017-11-23T00:31:27.016Z,19.70
2017-11-23T00:32:32.133Z,19.60
2017-11-23T00:33:36.926Z,19.70
2017-11-23T00:34:41.935Z,19.70
2017-11-23T00:35:46.642Z,19.70
2017-11-23T00:36:51.384Z,19.60
2017-11-23T00:37:56.245Z,19.70
2017-11-23T00:39:01.176Z,19.60
2017-11-23T00:40:05.902Z,19.70
2017-11-23T00:41:10.786Z,19.60
2017-11-23T00:42:15.712Z,19.60
2017-11-23T00:43:20.645Z,19.60
2017-11-23T00:44:25.286Z,19.60
2017-11-23T00:45:30.129Z,19.60
2017-11-23T00:46:34.997Z,19.60
2017-11-23T00:47:39.613Z,19.60
2017-11-23T00:48:44.331Z,19.60
2017-11-23T00:49:49.087Z,19.60
2017-11-23T00:50:53.855Z,19.60
2017-11-23T00:51:58.636Z,19.60
2017-11-23T00:53:03.392Z,19.60
2017-11-23T00:54:08.229Z,19.60
2017-11-23T00:55:13.114Z,19.60
2017-11-23T00:56:17.822Z,19.60
2017-11-23T00:57:22.712Z,19.60
2017-11-23T00:58:27.453Z,19.60
2017-11-23T00:59:32.175Z,19.60
2017-11-23T01:00:36.982Z,19.60
2017-11-23T01:01:42.231Z,19.60
2017-11-23T01:02:47.179Z,19.60
2017-11-23T01:03:51.868Z,19.60
2017-11-23T01:04:56.461Z,19.60
2017-11-23T01:06:01.245Z,19.60
2017-11-23T01:07:05.985Z,19.60
2017-11-23T01:08:10.922Z,19.60
2017-11-23T01:09:15.837Z,19.60
2017-11-23T01:10:20.569Z,19.60
2017-11-23T01:11:25.176Z,19.60
2017-11-23T01:12:29.990Z,19.60
2017-11-23T01:13:34.940Z,19.60
2017-11-23T01:14:39.876Z,19.60
2017-11-23T01:15:44.813Z,19.60
2017-11-23T01:16:49.821Z,19.60
2017-11-23T01:17:54.475Z,19.60
2017-11-23T01:18:59.385Z,19.60
2017-11-23T01:20:04.305Z,19.60
2017-11-23T01:21:09.063Z,19.60
2017-11-23T01:22:13.753Z,19.60
2017-11-23T01:23:18.400Z,19.60
2017-11-23T01:24:23.220Z,19.60
2017-11-23T01:25:27.966Z,19.60
2017-11-23T01:26:32.793Z,19.60
2017-11-23T01:27:37.463Z,19.60
2017-11-23T01:28:42.302Z,19.60
2017-11-23T01:29:47.063Z,19.60
2017-11-23T01:30:51.940Z,19.60
2017-11-23T01:31:56.639Z,19.60
2017-11-23T01:33:01.314Z,19.60
2017-11-23T01:34:06.250Z,19.60
2017-11-23T01:35:11.058Z,19.60
2017-11-23T01:36:15.759Z,19.60
2017-11-23T01:37:20.409Z,19.60
2017-11-23T01:38:25.266Z,19.60
2017-11-23T01:39:30.016Z,19.60
2017-11-23T01:40:34.836Z,19.60
2017-11-23T01:41:39.585Z,19.60
2017-11-23T01:42:44.500Z,19.60
2017-11-23T01:43:49.401Z,19.60
2017-11-23T01:44:54.448Z,19.60
2017-11-23T01:45:59.237Z,19.70
2017-11-23T01:47:03.901Z,19.70
2017-11-23T01:48:08.788Z,19.60
2017-11-23T01:49:13.639Z,19.60
2017-11-23T01:50:18.421Z,19.60
2017-11-23T01:51:23.117Z,19.60
2017-11-23T01:52:27.917Z,19.70
2017-11-23T01:53:32.639Z,19.70
2017-11-23T01:54:37.245Z,19.70
2017-11-23T01:55:41.943Z,19.60
2017-11-23T01:56:46.710Z,19.60
2017-11-23T01:57:51.420Z,19.60
2017-11-23T01:58:55.968Z,19.70
2017-11-23T02:00:00.828Z,19.60
2017-11-23T02:01:05.485Z,19.70
2017-11-23T02:02:10.355Z,19.60
2017-11-23T02:03:15.020Z,19.70
2017-11-23T02:04:19.965Z,19.60
2017-11-23T02:05:24.638Z,19.60
2017-11-23T02:06:29.519Z,19.60
2017-11-23T02:07:37.095Z,19.70
2017-11-23T02:08:41.935Z,19.60
2017-11-23T02:09:46.522Z,19.60
2017-11-23T02:10:51.512Z,19.70
2017-11-23T02:11:56.266Z,19.60
2017-11-23T02:13:00.858Z,19.60
2017-11-23T02:14:05.702Z,19.60
2017-11-23T02:15:10.432Z,19.60
2017-11-23T02:16:15.635Z,19.60
2017-11-23T02:17:20.245Z,19.70
2017-11-23T02:18:25.156Z,19.60
2017-11-23T02:19:29.943Z,19.70
2017-11-23T02:20:34.669Z,19.70
2017-11-23T02:21:39.392Z,19.70
2017-11-23T02:22:44.443Z,19.60
2017-11-23T02:23:49.325Z,19.70
2017-11-23T02:24:54.164Z,19.60
2017-11-23T02:25:58.948Z,19.70
2017-11-23T02:27:04.345Z,19.60
2017-11-23T02:28:09.259Z,19.60
2017-11-23T02:29:13.964Z,19.70
2017-11-23T02:30:18.527Z,19.60
2017-11-23T02:31:23.250Z,19.60
2017-11-23T02:32:28.168Z,19.70
2017-11-23T02:33:32.934Z,19.70
2017-11-23T02:34:37.799Z,19.60
2017-11-23T02:35:43.086Z,19.60
2017-11-23T02:36:47.732Z,19.60
2017-11-23T02:37:53.602Z,19.70
2017-11-23T02:38:59.038Z,19.70
2017-11-23T02:40:04.383Z,19.60
2017-11-23T02:41:09.251Z,19.60
2017-11-23T02:42:14.124Z,19.60
2017-11-23T02:43:19.400Z,19.60
2017-11-23T02:44:24.128Z,19.60
2017-11-23T02:45:28.901Z,19.70
2017-11-23T02:46:33.674Z,19.60
2017-11-23T02:47:38.394Z,19.60
2017-11-23T02:48:43.177Z,19.70
2017-11-23T02:49:47.839Z,19.70
2017-11-23T02:50:52.567Z,19.70
2017-11-23T02:51:57.521Z,19.60
2017-11-23T02:53:02.395Z,19.70
2017-11-23T02:54:07.116Z,19.70
2017-11-23T02:55:11.892Z,19.60
2017-11-23T02:56:16.700Z,19.60
2017-11-23T02:57:21.621Z,19.60
2017-11-23T02:58:26.419Z,19.60
2017-11-23T02:59:31.311Z,19.60
2017-11-23T03:00:36.130Z,19.60
2017-11-23T03:01:41.028Z,19.60
2017-11-23T03:02:45.829Z,19.70
2017-11-23T03:03:50.747Z,19.70
2017-11-23T03:04:55.447Z,19.60
2017-11-23T03:06:00.234Z,19.60
2017-11-23T03:07:05.120Z,19.60
2017-11-23T03:08:09.916Z,19.60
2017-11-23T03:09:14.628Z,19.60
2017-11-23T03:10:19.322Z,19.70
2017-11-23T03:11:23.914Z,19.60
2017-11-23T03:12:28.677Z,19.60
2017-11-23T03:13:33.577Z,19.60
2017-11-23T03:14:38.793Z,19.60
2017-11-23T03:15:43.547Z,19.60
2017-11-23T03:16:48.171Z,19.60
2017-11-23T03:17:52.744Z,19.60
2017-11-23T03:18:57.517Z,19.70
2017-11-23T03:20:02.289Z,19.60
2017-11-23T03:21:07.176Z,19.60
2017-11-23T03:22:12.406Z,19.70
2017-11-23T03:23:17.263Z,19.70
2017-11-23T03:24:22.130Z,19.60
2017-11-23T03:25:26.929Z,19.70
2017-11-23T03:26:31.808Z,19.60
2017-11-23T03:27:36.453Z,19.60
2017-11-23T03:28:41.307Z,19.60
2017-11-23T03:29:46.044Z,19.60
2017-11-23T03:30:50.851Z,19.70
2017-11-23T03:31:55.731Z,19.60
2017-11-23T03:33:00.480Z,19.60
2017-11-23T03:34:05.398Z,19.70
2017-11-23T03:35:10.040Z,19.60
2017-11-23T03:36:14.780Z,19.60
2017-11-23T03:37:19.550Z,19.60
2017-11-23T03:38:24.160Z,19.70
2017-11-23T03:39:28.915Z,19.70
2017-11-23T03:40:33.689Z,19.60
2017-11-23T03:41:38.381Z,19.70
2017-11-23T03:42:43.249Z,19.60
2017-11-23T03:43:48.019Z,19.60
2017-11-23T03:44:52.888Z,19.60
2017-11-23T03:45:57.712Z,19.60
2017-11-23T03:47:02.408Z,19.60
2017-11-23T03:48:07.134Z,19.70
2017-11-23T03:49:12.072Z,19.70
2017-11-23T03:50:16.799Z,19.60
2017-11-23T03:51:22.375Z,19.70
2017-11-23T03:52:27.682Z,19.70
2017-11-23T03:53:32.472Z,19.60
2017-11-23T03:54:37.923Z,19.60
2017-11-23T03:55:42.691Z,19.70
2017-11-23T03:56:47.322Z,19.70
2017-11-23T03:57:52.097Z,19.70
2017-11-23T03:58:56.961Z,19.60
2017-11-23T04:00:01.781Z,19.60
2017-11-23T04:01:06.648Z,19.70
2017-11-23T04:02:11.431Z,19.60
2017-11-23T04:03:16.056Z,19.60
2017-11-23T04:04:20.768Z,19.60
2017-11-23T04:05:25.523Z,19.70
2017-11-23T04:06:30.299Z,19.70
2017-11-23T04:07:35.068Z,19.60
2017-11-23T04:08:39.810Z,19.70
2017-11-23T04:09:44.539Z,19.70
2017-11-23T04:10:49.476Z,19.70
2017-11-23T04:11:54.195Z,19.60
2017-11-23T04:12:58.924Z,19.60
2017-11-23T04:14:03.715Z,19.60
2017-11-23T04:15:08.455Z,19.60
2017-11-23T04:16:13.398Z,19.70
2017-11-23T04:17:18.026Z,19.70
2017-11-23T04:18:22.904Z,19.60
2017-11-23T04:19:27.826Z,19.60
2017-11-23T04:20:32.598Z,19.60
2017-11-23T04:21:37.175Z,19.60
2017-11-23T04:22:41.967Z,19.60
2017-11-23T04:23:46.680Z,19.60
2017-11-23T04:24:51.549Z,19.60
2017-11-23T04:25:56.410Z,19.70
2017-11-23T04:27:01.339Z,19.70
2017-11-23T04:28:06.197Z,19.60
2017-11-23T04:29:10.747Z,19.70
2017-11-23T04:30:15.599Z,19.60
2017-11-23T04:31:20.393Z,19.60
2017-11-23T04:32:25.057Z,19.60
2017-11-23T04:33:29.997Z,19.60
2017-11-23T04:34:34.932Z,19.70
2017-11-23T04:35:39.677Z,19.70
2017-11-23T04:36:44.497Z,19.70
2017-11-23T04:37:49.265Z,19.70
2017-11-23T04:38:54.883Z,19.70
2017-11-23T04:39:59.807Z,19.70
2017-11-23T04:41:04.738Z,19.70
2017-11-23T04:42:09.375Z,19.70
2017-11-23T04:43:14.275Z,19.70
2017-11-23T04:44:18.977Z,19.70
2017-11-23T04:45:23.698Z,19.70
2017-11-23T04:46:28.354Z,19.70
2017-11-23T04:47:33.250Z,19.70
2017-11-23T04:48:37.994Z,19.70
2017-11-23T04:49:42.819Z,19.70
2017-11-23T04:50:47.945Z,19.70
2017-11-23T04:51:52.725Z,19.70
2017-11-23T04:52:57.463Z,19.70
2017-11-23T04:54:02.739Z,19.70
2017-11-23T04:55:07.627Z,19.70
2017-11-23T04:56:12.550Z,19.70
2017-11-23T04:57:17.563Z,19.70
2017-11-23T04:58:22.509Z,19.70
2017-11-23T04:59:27.229Z,19.70
2017-11-23T05:00:34.316Z,19.70
2017-11-23T05:01:39.313Z,19.70
2017-11-23T05:02:44.142Z,19.70
2017-11-23T05:03:49.009Z,19.70
2017-11-23T05:04:53.796Z,19.70
2017-11-23T05:05:58.777Z,19.70
2017-11-23T05:07:03.759Z,19.70
2017-11-23T05:08:08.616Z,19.60
2017-11-23T05:09:13.553Z,19.70
2017-11-23T05:10:18.520Z,19.70
2017-11-23T05:11:23.344Z,19.70
2017-11-23T05:12:28.231Z,19.70
2017-11-23T05:13:33.206Z,19.70
2017-11-23T05:14:38.194Z,19.70
2017-11-23T05:15:43.304Z,19.70
2017-11-23T05:16:48.351Z,19.70
2017-11-23T05:17:55.752Z,19.70
2017-11-23T05:19:01.815Z,19.70
2017-11-23T05:20:06.850Z,19.70
2017-11-23T05:21:11.969Z,19.70
2017-11-23T05:22:16.992Z,19.70
2017-11-23T05:23:22.287Z,19.70
2017-11-23T05:24:27.318Z,19.70
2017-11-23T05:25:32.303Z,19.70
2017-11-23T05:26:37.239Z,19.70
2017-11-23T05:27:42.151Z,19.60
2017-11-23T05:28:47.170Z,19.50
2017-11-23T05:29:52.313Z,19.50
2017-11-23T05:30:57.778Z,19.40
2017-11-23T05:32:02.802Z,19.40
2017-11-23T05:33:07.796Z,19.30
2017-11-23T05:34:13.270Z,19.30
2017-11-23T05:35:18.326Z,19.40
2017-11-23T05:36:23.228Z,19.30
2017-11-23T05:37:28.501Z,19.40
2017-11-23T05:38:33.497Z,19.40
2017-11-23T05:39:38.621Z,19.50
2017-11-23T05:40:43.774Z,19.50
2017-11-23T05:41:48.711Z,19.50
2017-11-23T05:42:53.721Z,19.50
2017-11-23T05:43:59.141Z,19.50
2017-11-23T05:45:04.081Z,19.60
2017-11-23T05:46:08.913Z,19.60
2017-11-23T05:47:13.872Z,19.60
2017-11-23T05:48:18.926Z,19.60
2017-11-23T05:49:23.906Z,19.60
2017-11-23T05:50:28.685Z,19.60
2017-11-23T05:51:33.718Z,19.60
2017-11-23T05:52:39.476Z,19.60
2017-11-23T05:53:44.301Z,19.60
2017-11-23T05:54:49.225Z,19.70
2017-11-23T05:55:54.074Z,19.60
2017-11-23T05:56:59.217Z,19.60
2017-11-23T05:58:04.379Z,19.60
2017-11-23T05:59:09.568Z,19.60
2017-11-23T06:00:14.627Z,19.70
2017-11-23T06:01:19.587Z,19.70
2017-11-23T06:02:24.820Z,19.70
2017-11-23T06:03:29.919Z,19.70
2017-11-23T06:04:35.189Z,19.70
2017-11-23T06:05:40.107Z,19.70
2017-11-23T06:06:45.142Z,19.80
2017-11-23T06:07:50.081Z,19.80
2017-11-23T06:08:55.286Z,19.70
2017-11-23T06:10:00.583Z,19.70
2017-11-23T06:11:06.187Z,19.70
2017-11-23T06:12:11.957Z,19.70
2017-11-23T06:13:17.231Z,19.70
2017-11-23T06:14:22.559Z,19.70
2017-11-23T06:15:27.671Z,19.70
2017-11-23T06:16:32.889Z,19.70
2017-11-23T06:17:37.714Z,19.70
2017-11-23T06:18:42.917Z,19.70
2017-11-23T06:19:47.849Z,19.70
2017-11-23T06:20:53.044Z,19.70
2017-11-23T06:21:59.122Z,19.70
2017-11-23T06:23:04.389Z,19.70
2017-11-23T06:24:09.400Z,19.80
2017-11-23T06:25:14.494Z,19.80
2017-11-23T06:26:19.460Z,19.80
2017-11-23T06:27:24.867Z,19.80
2017-11-23T06:28:29.893Z,19.80
2017-11-23T06:29:35.324Z,19.90
2017-11-23T06:30:40.330Z,19.80
2017-11-23T06:31:45.452Z,19.90
2017-11-23T06:32:50.561Z,19.80
2017-11-23T06:33:55.531Z,19.80
2017-11-23T06:35:00.499Z,19.80
2017-11-23T06:36:05.844Z,19.80
2017-11-23T06:37:10.987Z,19.80
2017-11-23T06:38:15.874Z,19.90
2017-11-23T06:39:20.910Z,19.80
2017-11-23T06:40:25.883Z,19.90
2017-11-23T06:41:31.098Z,19.90
2017-11-23T06:42:36.351Z,19.90
2017-11-23T06:43:44.067Z,19.90
2017-11-23T06:44:49.769Z,19.90
2017-11-23T06:45:55.306Z,19.90
2017-11-23T06:47:00.650Z,19.90
2017-11-23T06:48:05.868Z,19.90
2017-11-23T06:49:11.246Z,19.90
2017-11-23T06:50:16.363Z,19.90
2017-11-23T06:51:22.137Z,19.90
2017-11-23T06:52:27.476Z,19.90
2017-11-23T06:53:32.460Z,19.90
2017-11-23T06:54:37.689Z,20.00
2017-11-23T06:55:42.572Z,20.00
2017-11-23T06:56:47.480Z,20.00
2017-11-23T06:57:52.642Z,20.00
2017-11-23T06:58:57.983Z,20.00
2017-11-23T07:00:03.356Z,20.00
2017-11-23T07:01:08.857Z,20.00
2017-11-23T07:02:14.532Z,20.10
2017-11-23T07:03:19.942Z,20.10
2017-11-23T07:04:25.095Z,20.10
2017-11-23T07:05:30.285Z,20.10
2017-11-23T07:06:35.212Z,20.20
2017-11-23T07:07:40.223Z,20.10
2017-11-23T07:08:45.460Z,20.10
2017-11-23T07:09:50.673Z,20.20
2017-11-23T07:10:55.907Z,20.20
2017-11-23T07:12:01.057Z,20.20
2017-11-23T07:13:06.399Z,20.20
2017-11-23T07:14:11.729Z,20.20
2017-11-23T07:15:17.058Z,20.20
2017-11-23T07:16:22.389Z,20.30
2017-11-23T07:17:27.709Z,20.20
2017-11-23T07:18:33.369Z,20.20
2017-11-23T07:19:39.159Z,20.20
2017-11-23T07:20:44.255Z,20.20
2017-11-23T07:21:49.565Z,20.20
2017-11-23T07:22:54.892Z,20.20
2017-11-23T07:24:00.427Z,20.20
2017-11-23T07:25:05.737Z,20.20
2017-11-23T07:26:11.098Z,20.30
2017-11-23T07:27:16.535Z,20.20
2017-11-23T07:28:22.087Z,20.20
2017-11-23T07:29:27.619Z,20.20
2017-11-23T07:30:32.776Z,20.30
2017-11-23T07:31:38.057Z,20.20
2017-11-23T07:32:50.706Z,20.30
2017-11-23T07:34:01.275Z,20.30
2017-11-23T07:35:07.291Z,20.30
2017-11-23T07:36:12.265Z,20.30
2017-11-23T07:37:17.172Z,20.30
2017-11-23T07:38:22.236Z,20.40
2017-11-23T07:39:27.486Z,20.40
2017-11-23T07:40:32.383Z,20.30
2017-11-23T07:41:37.717Z,20.30
2017-11-23T07:42:43.041Z,20.30
2017-11-23T07:43:48.211Z,20.30
2017-11-23T07:44:53.450Z,20.30
2017-11-23T07:45:58.621Z,20.30
2017-11-23T07:47:07.370Z,20.30
2017-11-23T07:48:12.552Z,20.30
2017-11-23T07:49:17.936Z,20.20
2017-11-23T07:50:23.022Z,20.30
2017-11-23T07:51:28.363Z,20.30
2017-11-23T07:52:33.480Z,20.30
2017-11-23T07:53:38.585Z,20.30
2017-11-23T07:54:43.843Z,20.30
2017-11-23T07:55:48.994Z,20.30
2017-11-23T07:56:54.181Z,20.30
2017-11-23T07:57:59.261Z,20.30
2017-11-23T07:59:04.410Z,20.30
2017-11-23T08:00:09.403Z,20.30
2017-11-23T08:01:14.416Z,20.30
2017-11-23T08:02:19.856Z,20.30
2017-11-23T08:03:25.155Z,20.30
2017-11-23T08:04:31.636Z,20.30
2017-11-23T08:05:37.815Z,20.40
2017-11-23T08:06:43.413Z,20.40
2017-11-23T08:07:48.762Z,20.50
2017-11-23T08:08:54.178Z,20.50
2017-11-23T08:09:59.286Z,20.40
2017-11-23T08:11:04.577Z,20.50
2017-11-23T08:12:09.787Z,20.40
2017-11-23T08:13:14.791Z,20.40
2017-11-23T08:14:20.065Z,20.50
2017-11-23T08:15:25.370Z,20.40
2017-11-23T08:16:30.596Z,20.40
2017-11-23T08:17:36.323Z,20.40
2017-11-23T08:18:41.582Z,20.40
2017-11-23T08:19:46.853Z,20.40
2017-11-23T08:20:52.565Z,20.40
2017-11-23T08:21:57.867Z,20.40
2017-11-23T08:23:03.527Z,20.30
2017-11-23T08:24:08.636Z,20.40
2017-11-23T08:25:13.559Z,20.40
2017-11-23T08:26:18.583Z,20.40
2017-11-23T08:27:23.884Z,20.40
2017-11-23T08:28:28.996Z,20.40
2017-11-23T08:29:34.402Z,20.40
2017-11-23T08:30:39.631Z,20.40
2017-11-23T08:31:44.889Z,20.40
2017-11-23T08:32:50.253Z,20.40
2017-11-23T08:33:55.699Z,20.40
2017-11-23T08:35:01.110Z,20.30
2017-11-23T08:36:06.178Z,20.50
2017-11-23T08:37:11.417Z,20.50
2017-11-23T08:38:16.795Z,20.50
2017-11-23T08:39:21.931Z,20.50
2017-11-23T08:40:27.142Z,20.50
2017-11-23T08:41:32.707Z,20.40
2017-11-23T08:42:38.670Z,20.40
2017-11-23T08:43:44.233Z,20.40
2017-11-23T08:44:49.419Z,20.40
2017-11-23T08:45:54.724Z,20.40
2017-11-23T08:47:00.114Z,20.40
2017-11-23T08:48:05.281Z,20.40
2017-11-23T08:49:10.617Z,20.40
2017-11-23T08:50:15.946Z,20.30
2017-11-23T08:51:21.607Z,20.30
2017-11-23T08:52:26.920Z,20.30
2017-11-23T08:53:32.538Z,20.30
2017-11-23T08:54:38.109Z,20.30
2017-11-23T08:55:43.353Z,20.30
2017-11-23T08:56:48.830Z,20.30
2017-11-23T08:57:54.327Z,20.30
2017-11-23T08:58:59.791Z,20.30
2017-11-23T09:00:05.401Z,20.30
2017-11-23T09:01:10.706Z,20.30
2017-11-23T09:02:16.289Z,20.30
2017-11-23T09:03:21.693Z,20.30
2017-11-23T09:04:26.883Z,20.30
2017-11-23T09:05:32.131Z,20.30
2017-11-23T09:06:37.530Z,20.30
2017-11-23T09:07:42.520Z,20.30
2017-11-23T09:08:47.812Z,20.30
2017-11-23T09:09:53.066Z,20.30
2017-11-23T09:10:58.201Z,20.30
2017-11-23T09:12:04.811Z,20.30
2017-11-23T09:13:10.078Z,20.30
2017-11-23T09:14:15.398Z,20.30
2017-11-23T09:15:20.839Z,20.30
2017-11-23T09:16:26.097Z,20.30
2017-11-23T09:17:31.197Z,20.30
2017-11-23T09:18:36.554Z,20.30
2017-11-23T09:19:41.950Z,20.30
2017-11-23T09:20:47.390Z,20.30
2017-11-23T09:21:53.207Z,20.30
2017-11-23T09:22:58.549Z,20.30
2017-11-23T09:24:04.237Z,20.30
2017-11-23T09:25:09.555Z,20.40
2017-11-23T09:26:14.965Z,20.30
2017-11-23T09:27:21.429Z,20.20
2017-11-23T09:28:27.149Z,20.30
2017-11-23T09:29:32.300Z,20.30
2017-11-23T09:30:37.420Z,20.30
2017-11-23T09:31:42.946Z,20.30
2017-11-23T09:32:48.209Z,20.40
2017-11-23T09:33:53.461Z,20.30
2017-11-23T09:34:58.851Z,20.30
2017-11-23T09:36:04.204Z,20.30
2017-11-23T09:37:09.512Z,20.30
2017-11-23T09:38:14.422Z,20.30
2017-11-23T09:39:19.869Z,20.30
2017-11-23T09:40:25.031Z,20.20
2017-11-23T09:41:30.233Z,20.20
2017-11-23T09:42:35.294Z,20.20
2017-11-23T09:43:40.932Z,20.20
2017-11-23T09:44:46.782Z,20.20
2017-11-23T09:45:52.274Z,20.20
2017-11-23T09:46:58.158Z,20.10
2017-11-23T09:48:03.404Z,20.20
2017-11-23T09:49:08.710Z,20.20
2017-11-23T09:50:13.925Z,20.20
2017-11-23T09:51:19.122Z,20.20
2017-11-23T09:52:24.572Z,20.20
2017-11-23T09:53:29.995Z,20.20
2017-11-23T09:54:35.305Z,20.30
2017-11-23T09:55:40.661Z,20.30
2017-11-23T09:56:45.915Z,20.30
2017-11-23T09:57:51.176Z,20.30
2017-11-23T09:58:56.349Z,20.30
2017-11-23T10:00:01.629Z,20.30
2017-11-23T10:01:07.562Z,20.30
2017-11-23T10:02:12.431Z,20.30
2017-11-23T10:03:17.769Z,20.30
2017-11-23T10:04:22.872Z,20.30
2017-11-23T10:05:28.191Z,20.30
2017-11-23T10:06:33.713Z,20.30
2017-11-23T10:07:39.307Z,20.30
2017-11-23T10:08:44.335Z,20.30
2017-11-23T10:09:49.562Z,20.30
2017-11-23T10:10:54.898Z,20.30
2017-11-23T10:12:00.322Z,20.30
2017-11-23T10:13:05.389Z,20.30
2017-11-23T10:14:10.574Z,20.30
2017-11-23T10:15:15.896Z,20.40
2017-11-23T10:16:22.691Z,20.30
2017-11-23T10:17:27.890Z,20.30
2017-11-23T10:18:33.283Z,20.40
2017-11-23T10:19:38.791Z,20.30
2017-11-23T10:20:44.328Z,20.40
2017-11-23T10:21:49.302Z,20.40
2017-11-23T10:22:54.537Z,20.40
2017-11-23T10:23:59.868Z,20.40
2017-11-23T10:25:05.116Z,20.40
2017-11-23T10:26:11.291Z,20.40
2017-11-23T10:27:16.474Z,20.40
2017-11-23T10:28:21.663Z,20.40
2017-11-23T10:29:26.740Z,20.40
2017-11-23T10:30:31.940Z,20.40
2017-11-23T10:31:37.601Z,20.40
2017-11-23T10:32:42.955Z,20.40
2017-11-23T10:33:47.948Z,20.30
2017-11-23T10:34:53.943Z,20.30
2017-11-23T10:35:59.173Z,20.30
2017-11-23T10:37:04.322Z,20.30
2017-11-23T10:38:09.068Z,20.30
2017-11-23T10:39:13.931Z,20.30
2017-11-23T10:40:18.806Z,20.30
2017-11-23T10:41:23.734Z,20.30
2017-11-23T10:42:28.708Z,20.20
2017-11-23T10:43:33.521Z,20.20
2017-11-23T10:44:38.412Z,20.20
2017-11-23T10:45:43.499Z,20.20
2017-11-23T10:46:48.271Z,20.20
2017-11-23T10:47:53.020Z,20.20
2017-11-23T10:48:57.722Z,20.20
2017-11-23T10:50:02.543Z,20.20
2017-11-23T10:51:07.256Z,20.20
2017-11-23T10:52:12.325Z,20.20
2017-11-23T10:53:17.340Z,20.20
2017-11-23T10:54:22.143Z,20.20
2017-11-23T10:55:27.088Z,20.20
2017-11-23T10:56:31.897Z,20.20
2017-11-23T10:57:36.730Z,20.20
2017-11-23T10:58:41.826Z,20.20
2017-11-23T10:59:46.652Z,20.10
2017-11-23T11:00:51.857Z,20.10
2017-11-23T11:01:56.917Z,20.10
2017-11-23T11:03:01.915Z,20.20
2017-11-23T11:04:06.831Z,20.10
2017-11-23T11:05:12.951Z,20.20
2017-11-23T11:06:18.008Z,20.10
2017-11-23T11:07:22.813Z,20.10
2017-11-23T11:08:27.732Z,20.20
2017-11-23T11:09:32.720Z,20.10
2017-11-23T11:10:37.638Z,20.10
2017-11-23T11:11:42.509Z,20.10
2017-11-23T11:12:47.342Z,20.10
2017-11-23T11:13:52.323Z,20.10
2017-11-23T11:14:57.069Z,20.20
2017-11-23T11:16:02.092Z,20.10
2017-11-23T11:17:06.926Z,20.10
2017-11-23T11:18:11.853Z,20.10
2017-11-23T11:19:16.870Z,20.20
2017-11-23T11:20:21.808Z,20.10
2017-11-23T11:21:26.638Z,20.10
2017-11-23T11:22:31.637Z,20.10
2017-11-23T11:23:36.651Z,20.10
2017-11-23T11:24:41.397Z,20.10
2017-11-23T11:25:46.358Z,20.10
2017-11-23T11:26:51.390Z,20.10
2017-11-23T11:27:56.488Z,20.10
2017-11-23T11:29:01.542Z,20.10
2017-11-23T11:30:06.588Z,20.10
2017-11-23T11:31:11.662Z,20.10
2017-11-23T11:32:16.465Z,20.10
2017-11-23T11:33:21.451Z,20.10
2017-11-23T11:34:26.377Z,20.10
2017-11-23T11:35:31.439Z,20.10
2017-11-23T11:36:36.410Z,20.10
2017-11-23T11:37:41.211Z,20.10
2017-11-23T11:38:46.195Z,20.10
2017-11-23T11:39:51.209Z,20.10
2017-11-23T11:40:56.184Z,20.20
2017-11-23T11:42:00.940Z,20.20
2017-11-23T11:43:06.083Z,20.20
2017-11-23T11:44:11.164Z,20.20
2017-11-23T11:45:16.108Z,20.20
2017-11-23T11:46:21.127Z,20.20
2017-11-23T11:47:26.043Z,20.20
2017-11-23T11:48:31.156Z,20.20
2017-11-23T11:49:36.051Z,20.20
2017-11-23T11:50:40.861Z,20.20
2017-11-23T11:51:45.733Z,20.20
2017-11-23T11:52:50.844Z,20.20
2017-11-23T11:53:56.093Z,20.20
2017-11-23T11:55:02.254Z,20.20
2017-11-23T11:56:07.838Z,20.20
2017-11-23T11:57:13.005Z,20.20
2017-11-23T11:58:18.660Z,20.20
2017-11-23T11:59:23.849Z,20.30
2017-11-23T12:00:28.964Z,20.30
2017-11-23T12:01:33.873Z,20.30
2017-11-23T12:02:38.828Z,20.20
2017-11-23T12:03:43.862Z,20.20
2017-11-23T12:04:48.781Z,20.20
2017-11-23T12:05:53.721Z,20.20
2017-11-23T12:06:58.745Z,20.30
2017-11-23T12:08:03.508Z,20.20
2017-11-23T12:09:08.551Z,20.20
2017-11-23T12:10:13.353Z,20.20
2017-11-23T12:11:18.371Z,20.20
2017-11-23T12:12:23.586Z,20.20
2017-11-23T12:13:28.514Z,20.20
2017-11-23T12:14:33.484Z,20.20
2017-11-23T12:15:38.508Z,20.10
2017-11-23T12:16:43.447Z,20.10
2017-11-23T12:17:48.286Z,20.10
2017-11-23T12:18:53.419Z,20.10
2017-11-23T12:19:58.451Z,20.10
2017-11-23T12:21:03.594Z,20.10
2017-11-23T12:22:08.469Z,20.10
2017-11-23T12:23:13.466Z,20.10
2017-11-23T12:24:18.610Z,20.10
2017-11-23T12:25:23.487Z,20.10
2017-11-23T12:26:28.436Z,20.10
2017-11-23T12:27:33.449Z,20.10
2017-11-23T12:28:38.402Z,20.00
2017-11-23T12:29:43.199Z,20.10
2017-11-23T12:30:48.245Z,20.00
2017-11-23T12:31:53.184Z,20.00
2017-11-23T12:32:57.876Z,20.10
2017-11-23T12:34:02.811Z,20.10
2017-11-23T12:35:07.776Z,20.10
2017-11-23T12:36:12.907Z,20.10
2017-11-23T12:37:17.958Z,20.10
2017-11-23T12:38:24.084Z,20.20
2017-11-23T12:39:28.997Z,20.10
2017-11-23T12:40:34.225Z,20.10
2017-11-23T12:41:38.945Z,20.10
2017-11-23T12:42:43.707Z,20.10
2017-11-23T12:43:48.713Z,20.10
2017-11-23T12:44:53.746Z,20.10
2017-11-23T12:45:58.832Z,20.20
2017-11-23T12:47:03.790Z,20.10
2017-11-23T12:48:08.867Z,20.10
2017-11-23T12:49:13.909Z,20.10
2017-11-23T12:50:19.143Z,20.10
2017-11-23T12:51:24.344Z,20.10
2017-11-23T12:52:29.601Z,20.10
2017-11-23T12:53:34.709Z,20.20
2017-11-23T12:54:39.734Z,20.20
2017-11-23T12:55:46.321Z,20.20
2017-11-23T12:56:51.703Z,20.20
2017-11-23T12:57:56.889Z,20.20
2017-11-23T12:59:02.994Z,20.20
2017-11-23T13:00:08.043Z,20.20
2017-11-23T13:01:13.336Z,20.20
2017-11-23T13:02:18.717Z,20.20
2017-11-23T13:03:24.361Z,20.20
2017-11-23T13:04:29.358Z,20.10
2017-11-23T13:05:34.586Z,20.20
2017-11-23T13:06:40.409Z,20.20
2017-11-23T13:07:45.557Z,20.10
2017-11-23T13:08:50.595Z,20.20
2017-11-23T13:09:55.782Z,20.10
2017-11-23T13:11:00.854Z,20.10
2017-11-23T13:12:06.176Z,20.10
2017-11-23T13:13:11.355Z,20.10
2017-11-23T13:14:17.338Z,20.20
2017-11-23T13:15:22.668Z,20.10
2017-11-23T13:16:28.036Z,20.20
2017-11-23T13:17:33.639Z,20.20
2017-11-23T13:18:39.471Z,20.10
2017-11-23T13:19:47.140Z,20.10
2017-11-23T13:20:52.607Z,20.20
2017-11-23T13:21:57.856Z,20.10
2017-11-23T13:23:03.881Z,20.10
2017-11-23T13:24:09.161Z,20.10
2017-11-23T13:25:14.489Z,20.10
2017-11-23T13:26:19.955Z,20.10
2017-11-23T13:27:25.441Z,20.20
2017-11-23T13:28:30.764Z,20.20
2017-11-23T13:29:36.265Z,20.10
2017-11-23T13:30:41.721Z,20.20
2017-11-23T13:31:47.428Z,20.10
2017-11-23T13:32:53.059Z,20.10
2017-11-23T13:33:58.346Z,20.10
2017-11-23T13:35:03.680Z,20.00
2017-11-23T13:36:08.825Z,20.10
2017-11-23T13:37:14.475Z,20.10
2017-11-23T13:38:20.138Z,20.10
2017-11-23T13:39:25.622Z,20.10
2017-11-23T13:40:31.330Z,20.10
2017-11-23T13:41:37.364Z,20.10
2017-11-23T13:42:43.496Z,20.20
2017-11-23T13:43:48.414Z,20.20
2017-11-23T13:44:54.980Z,20.10
2017-11-23T13:46:00.306Z,20.20
2017-11-23T13:47:05.732Z,20.10
2017-11-23T13:48:11.235Z,20.20
2017-11-23T13:49:16.631Z,20.10
2017-11-23T13:50:22.050Z,20.20
2017-11-23T13:51:27.291Z,20.10
2017-11-23T13:52:32.744Z,20.10
2017-11-23T13:53:38.453Z,20.20
2017-11-23T13:54:44.012Z,20.20
2017-11-23T13:55:49.456Z,20.10
2017-11-23T13:56:54.212Z,20.10
2017-11-23T13:57:59.828Z,20.10
2017-11-23T13:59:06.241Z,20.20